Time;durP1;ratioP1;P1;durP2;ratioP2;P2;SDS_P1;SDS_P2;PMS_P1;PMS_P2;Temp;Humidity;BMP_temperature;BMP_pressure;BME280_temperature;BME280_humidity;BME280_pressure;Samples;Min_cycle;Max_cycle;Signal;HPM_P1;HPM_P2
2022/11/06 00:00:52;;;;;;;6.03;3.55;;;9.80;99.90;;;;;;5142149;27;20483;-71
2022/11/06 00:03:18;;;;;;;5.00;3.25;;;9.80;99.90;;;;;;5142369;27;20047;-71
2022/11/06 00:08:33;;;;;;;6.03;3.90;;;9.80;99.90;;;;;;5140805;27;20054;-70
2022/11/06 00:10:59;;;;;;;5.97;3.97;;;9.80;99.90;;;;;;5133576;27;20051;-70
2022/11/06 00:13:26;;;;;;;5.40;3.58;;;9.80;99.90;;;;;;5149928;27;20038;-70
2022/11/06 00:15:52;;;;;;;5.72;3.63;;;9.90;99.90;;;;;;5154109;27;20047;-71
2022/11/06 00:18:18;;;;;;;5.70;3.40;;;10.10;99.90;;;;;;5153326;27;20066;-71
2022/11/06 00:20:43;;;;;;;5.70;3.47;;;9.80;99.90;;;;;;5154008;27;20050;-71
2022/11/06 00:23:09;;;;;;;4.57;3.58;;;9.80;99.90;;;;;;5144201;27;20050;-70
2022/11/06 00:25:39;;;;;;;5.30;3.20;;;9.80;99.90;;;;;;5139461;27;20046;-71
2022/11/06 00:28:04;;;;;;;4.95;3.60;;;9.80;99.90;;;;;;5138217;27;20046;-71
2022/11/06 00:30:30;;;;;;;6.43;4.03;;;9.80;99.90;;;;;;5141321;27;20062;-70
2022/11/06 00:32:56;;;;;;;5.93;3.83;;;9.80;99.90;;;;;;5147848;27;20495;-70
2022/11/06 00:35:22;;;;;;;7.28;3.95;;;9.80;99.90;;;;;;5151520;27;20047;-70
2022/11/06 00:37:48;;;;;;;6.40;3.60;;;9.80;99.90;;;;;;5139093;27;20051;-70
2022/11/06 00:40:13;;;;;;;5.00;3.95;;;10.20;99.90;;;;;;5132186;27;20047;-70
2022/11/06 00:42:39;;;;;;;5.75;3.60;;;9.70;99.90;;;;;;5144168;27;20050;-71
2022/11/06 00:45:05;;;;;;;6.18;3.60;;;10.10;99.90;;;;;;5120775;27;20190;-71
2022/11/06 00:47:31;;;;;;;5.20;3.40;;;9.70;99.90;;;;;;5132606;27;20042;-70
2022/11/06 00:49:56;;;;;;;5.72;3.80;;;9.70;99.90;;;;;;5145249;27;20045;-71
2022/11/06 00:52:22;;;;;;;5.65;3.65;;;9.70;99.90;;;;;;5138021;27;20372;-71
2022/11/06 00:54:48;;;;;;;6.45;3.58;;;9.70;99.90;;;;;;5145654;27;20078;-71
2022/11/06 00:57:13;;;;;;;6.30;4.00;;;9.80;99.90;;;;;;5133143;27;20039;-71
2022/11/06 00:59:39;;;;;;;7.15;3.80;;;9.70;99.90;;;;;;5135453;27;20051;-71
2022/11/06 01:02:05;;;;;;;6.78;3.42;;;9.70;99.90;;;;;;5137471;27;20042;-70
2022/11/06 01:04:30;;;;;;;4.82;3.45;;;9.70;99.90;;;;;;5132554;27;20050;-70
2022/11/06 01:06:56;;;;;;;4.85;3.45;;;9.60;99.90;;;;;;5132120;27;20043;-71
2022/11/06 01:09:25;;;;;;;4.63;3.30;;;9.70;99.90;;;;;;5136481;27;20154;-71
2022/11/06 01:11:53;;;;;;;5.22;3.90;;;9.60;99.90;;;;;;5116606;27;20436;-72
2022/11/06 01:14:20;;;;;;;6.47;3.88;;;9.60;99.90;;;;;;5126805;27;20058;-70
2022/11/06 01:16:46;;;;;;;4.10;3.35;;;9.50;99.90;;;;;;5133924;27;20066;-72
2022/11/06 01:19:14;;;;;;;5.30;3.63;;;9.50;99.90;;;;;;5137575;27;20126;-71
2022/11/06 01:21:43;;;;;;;6.63;3.92;;;9.50;99.90;;;;;;5133690;27;20038;-71
2022/11/06 01:24:17;;;;;;;6.25;4.07;;;9.50;99.90;;;;;;5146892;27;20040;-72
2022/11/06 01:26:44;;;;;;;7.85;4.25;;;9.50;99.90;;;;;;5152062;27;20046;-71
2022/11/06 01:29:12;;;;;;;4.88;3.30;;;9.60;99.90;;;;;;5131333;27;20087;-71
2022/11/06 01:31:39;;;;;;;8.70;4.28;;;9.60;99.90;;;;;;5139290;27;20498;-71
2022/11/06 01:34:04;;;;;;;5.90;4.00;;;9.60;99.90;;;;;;5137005;27;20770;-71
2022/11/06 01:36:31;;;;;;;4.88;3.45;;;9.60;99.90;;;;;;5138888;27;20034;-71
2022/11/06 01:38:59;;;;;;;5.55;3.67;;;9.60;99.90;;;;;;5127198;28;20039;-70
2022/11/06 01:41:29;;;;;;;6.75;3.67;;;9.60;99.90;;;;;;5140214;27;20039;-71
2022/11/06 01:44:01;;;;;;;5.90;3.63;;;9.60;99.90;;;;;;5140835;27;20081;-71
2022/11/06 01:46:33;;;;;;;6.03;3.58;;;9.50;99.90;;;;;;5147165;27;20039;-71
2022/11/06 01:49:13;;;;;;;7.18;3.55;;;9.50;99.90;;;;;;5131284;27;20560;-70
2022/11/06 01:52:07;;;;;;;6.25;4.10;;;9.50;99.90;;;;;;5130666;27;20043;-70
2022/11/06 01:54:35;;;;;;;5.82;3.60;;;9.50;99.90;;;;;;5129032;27;20043;-70
2022/11/06 01:57:03;;;;;;;5.93;4.10;;;9.40;99.90;;;;;;5140666;27;20513;-71
2022/11/06 01:59:32;;;;;;;4.70;3.60;;;9.40;99.90;;;;;;5134995;27;20039;-71
2022/11/06 02:01:58;;;;;;;6.38;4.28;;;9.40;99.90;;;;;;5141292;27;20055;-70
2022/11/06 02:04:27;;;;;;;7.05;4.07;;;9.30;99.90;;;;;;5135054;27;20039;-71
2022/11/06 02:06:53;;;;;;;5.38;3.70;;;9.30;99.90;;;;;;5146965;27;20053;-72
2022/11/06 02:09:19;;;;;;;5.63;3.90;;;9.30;99.90;;;;;;5144798;27;20807;-71
2022/11/06 02:11:53;;;;;;;5.15;3.80;;;9.30;99.90;;;;;;5145500;27;20093;-71
2022/11/06 02:14:36;;;;;;;7.05;4.03;;;9.20;99.90;;;;;;5151857;27;20042;-70
2022/11/06 02:17:25;;;;;;;4.72;3.88;;;9.30;99.90;;;;;;5152688;27;20115;-71
2022/11/06 02:20:06;;;;;;;6.03;3.70;;;9.30;99.90;;;;;;5152170;27;20130;-71
2022/11/06 02:22:46;;;;;;;5.50;4.00;;;9.30;99.90;;;;;;5139049;27;20051;-70
2022/11/06 02:25:23;;;;;;;5.28;3.75;;;9.30;99.90;;;;;;5139232;27;20039;-70
2022/11/06 02:28:02;;;;;;;6.45;3.92;;;9.30;99.90;;;;;;5131109;27;20043;-70
2022/11/06 02:30:30;;;;;;;5.60;3.90;;;9.30;99.90;;;;;;5145939;27;20047;-71
2022/11/06 02:33:08;;;;;;;5.88;4.15;;;9.30;99.90;;;;;;5142571;27;20498;-71
2022/11/06 02:35:40;;;;;;;5.57;3.97;;;9.20;99.90;;;;;;5139585;27;20082;-70
2022/11/06 02:38:14;;;;;;;5.18;3.83;;;9.20;99.90;;;;;;5117341;27;20043;-71
2022/11/06 02:40:45;;;;;;;6.45;3.58;;;9.10;99.90;;;;;;5138398;27;20053;-71
2022/11/06 02:43:14;;;;;;;5.47;4.15;;;9.00;99.90;;;;;;5145662;27;20449;-70
2022/11/06 02:45:51;;;;;;;6.65;3.92;;;9.00;99.90;;;;;;5135177;27;20083;-70
2022/11/06 02:48:21;;;;;;;6.93;4.00;;;9.00;99.90;;;;;;5138157;27;20442;-71
2022/11/06 02:50:49;;;;;;;5.85;4.03;;;8.90;99.90;;;;;;5140633;27;20055;-70
2022/11/06 02:53:19;;;;;;;5.85;4.10;;;8.80;99.90;;;;;;5155955;27;20039;-70
2022/11/06 02:55:48;;;;;;;5.38;4.18;;;8.90;99.90;;;;;;5144700;27;20035;-70
2022/11/06 02:58:17;;;;;;;7.82;3.90;;;8.80;99.90;;;;;;5134344;27;20488;-70
2022/11/06 03:00:50;;;;;;;6.50;3.78;;;8.70;99.90;;;;;;5147818;27;20444;-70
2022/11/06 03:03:25;;;;;;;6.70;4.10;;;9.20;99.90;;;;;;5134733;27;20083;-70
2022/11/06 03:06:00;;;;;;;5.55;3.70;;;8.80;99.90;;;;;;5122939;27;20130;-70
2022/11/06 03:08:33;;;;;;;6.40;3.33;;;8.80;99.90;;;;;;5152463;27;20058;-70
2022/11/06 03:11:10;;;;;;;5.78;3.85;;;8.80;99.90;;;;;;5155003;27;20284;-70
2022/11/06 03:14:06;;;;;;;6.95;4.35;;;8.70;99.90;;;;;;5155198;27;20035;-71
2022/11/06 03:16:54;;;;;;;5.15;3.40;;;8.70;99.90;;;;;;5097628;27;20539;-71
2022/11/06 03:19:32;;;;;;;5.57;3.42;;;8.80;99.90;;;;;;5146961;27;20053;-71
2022/11/06 03:22:08;;;;;;;6.22;3.60;;;8.80;99.90;;;;;;5155028;27;20115;-70
2022/11/06 03:25:02;;;;;;;8.32;4.20;;;8.80;99.90;;;;;;5155213;27;20078;-71
2022/11/06 03:27:58;;;;;;;4.80;3.70;;;8.90;99.90;;;;;;5128380;27;20055;-70
2022/11/06 03:30:25;;;;;;;5.07;3.50;;;8.80;99.90;;;;;;5123259;27;20050;-70
2022/11/06 03:33:20;;;;;;;7.30;3.40;;;8.90;99.90;;;;;;5136459;27;20053;-70
2022/11/06 03:36:00;;;;;;;5.88;3.28;;;8.80;99.90;;;;;;5154271;27;20127;-71
2022/11/06 03:39:01;;;;;;;5.68;3.55;;;8.90;99.90;;;;;;5155026;27;20134;-70
2022/11/06 03:41:42;;;;;;;7.57;3.47;;;8.90;99.90;;;;;;5139727;27;20107;-71
2022/11/06 03:44:12;;;;;;;6.57;3.55;;;8.90;99.90;;;;;;5152808;27;20145;-70
2022/11/06 03:46:45;;;;;;;3.92;3.35;;;9.00;99.90;;;;;;5152758;27;20078;-71
2022/11/06 03:49:28;;;;;;;6.38;2.97;;;9.00;99.90;;;;;;5138129;27;20069;-70
2022/11/06 03:52:09;;;;;;;5.10;2.50;;;9.00;99.90;;;;;;5134002;27;20050;-71
2022/11/06 03:54:48;;;;;;;6.03;3.00;;;9.10;99.90;;;;;;5144101;27;20091;-71
2022/11/06 03:57:41;;;;;;;5.90;3.25;;;9.00;99.90;;;;;;5133460;27;20058;-70
2022/11/06 04:00:08;;;;;;;5.07;3.13;;;9.00;99.90;;;;;;5133740;27;20127;-70
2022/11/06 04:02:37;;;;;;;4.38;3.22;;;9.00;99.90;;;;;;5133669;27;20043;-71
2022/11/06 04:05:09;;;;;;;7.50;3.10;;;8.90;99.90;;;;;;5115337;27;20587;-71
2022/11/06 04:07:39;;;;;;;6.47;3.10;;;8.90;99.90;;;;;;5140823;27;20047;-70
2022/11/06 04:15:46;;;;;;;5.75;3.35;;;8.80;99.90;;;;;;5146214;27;20043;-71
2022/11/06 04:18:16;;;;;;;5.00;2.80;;;8.80;99.90;;;;;;5149705;27;20150;-71
2022/11/06 04:26:34;;;;;;;6.50;3.70;;;8.70;99.90;;;;;;5139240;27;20164;-70
2022/11/06 04:26:56;;;;;;;4.13;3.00;;;8.60;99.90;;;;;;5139721;27;20493;-70
2022/11/06 04:29:43;;;;;;;6.88;3.33;;;8.60;99.90;;;;;;5149149;27;20096;-71
2022/11/06 04:32:28;;;;;;;5.65;3.05;;;8.60;99.90;;;;;;5141166;27;20086;-70
2022/11/06 04:35:26;;;;;;;4.93;3.10;;;8.60;99.90;;;;;;5132927;27;20039;-70
2022/11/06 04:38:10;;;;;;;5.10;3.10;;;8.70;99.90;;;;;;5130490;27;20491;-71
2022/11/06 04:41:03;;;;;;;4.45;2.80;;;8.70;99.90;;;;;;5146758;27;20046;-72
2022/11/06 04:43:51;;;;;;;5.03;2.88;;;8.60;99.90;;;;;;5137368;27;20126;-70
2022/11/06 04:46:26;;;;;;;4.93;3.08;;;8.60;99.90;;;;;;5150902;27;20050;-70
2022/11/06 04:48:53;;;;;;;6.28;3.00;;;8.60;99.90;;;;;;5138896;27;20039;-70
2022/11/06 04:51:22;;;;;;;4.32;2.83;;;8.60;99.90;;;;;;5135081;27;20051;-69
2022/11/06 04:53:51;;;;;;;4.90;2.60;;;8.60;99.90;;;;;;5124967;27;20086;-70
2022/11/06 04:56:25;;;;;;;4.88;3.55;;;8.60;99.90;;;;;;5138619;27;20091;-70
2022/11/06 04:58:51;;;;;;;6.13;3.00;;;8.50;99.90;;;;;;5114086;27;20106;-70
2022/11/06 05:01:17;;;;;;;7.78;3.67;;;8.60;99.90;;;;;;5133692;27;20047;-70
2022/11/06 05:03:42;;;;;;;5.25;3.08;;;8.50;99.90;;;;;;5134017;27;20047;-70
2022/11/06 05:06:08;;;;;;;5.70;3.60;;;8.50;99.90;;;;;;5132472;27;20039;-70
2022/11/06 05:08:34;;;;;;;6.63;3.15;;;8.50;99.90;;;;;;5141613;27;20118;-70
2022/11/06 05:10:59;;;;;;;4.65;2.95;;;8.60;99.90;;;;;;5131013;27;20038;-70
2022/11/06 05:13:25;;;;;;;4.78;3.03;;;8.50;99.90;;;;;;5121101;27;20102;-70
2022/11/06 05:15:56;;;;;;;5.30;2.80;;;8.50;99.90;;;;;;5132473;27;20047;-69
2022/11/06 05:18:22;;;;;;;4.25;3.05;;;8.50;99.90;;;;;;5113907;27;20395;-70
2022/11/06 05:20:48;;;;;;;6.05;2.97;;;8.60;99.90;;;;;;5132355;27;20051;-70
2022/11/06 05:23:14;;;;;;;4.75;3.00;;;8.50;99.90;;;;;;5146571;27;20125;-70
2022/11/06 05:25:40;;;;;;;7.93;3.08;;;8.60;99.90;;;;;;5121558;27;20387;-70
2022/11/06 05:28:07;;;;;;;3.83;2.55;;;8.60;99.90;;;;;;5131722;27;20054;-70
2022/11/06 05:30:35;;;;;;;6.53;2.92;;;8.60;99.90;;;;;;5132041;27;20043;-70
2022/11/06 05:33:01;;;;;;;5.72;2.60;;;8.60;99.90;;;;;;5148602;27;20130;-70
2022/11/06 05:35:27;;;;;;;4.40;2.72;;;8.70;99.90;;;;;;5135545;27;20035;-70
2022/11/06 05:38:02;;;;;;;5.88;2.80;;;8.70;99.90;;;;;;5151987;27;20513;-69
2022/11/06 05:40:28;;;;;;;5.27;2.63;;;8.80;99.90;;;;;;5143959;27;20047;-70
2022/11/06 05:42:54;;;;;;;6.35;2.42;;;8.80;99.90;;;;;;5144877;27;20232;-70
2022/11/06 05:45:19;;;;;;;4.30;2.35;;;8.80;99.90;;;;;;5136563;27;20122;-70
2022/11/06 05:47:45;;;;;;;3.45;2.50;;;8.80;99.90;;;;;;5131819;27;20043;-70
2022/11/06 05:50:11;;;;;;;5.60;2.67;;;8.80;99.90;;;;;;5132021;27;20503;-70
2022/11/06 05:52:37;;;;;;;5.50;2.58;;;8.80;99.90;;;;;;5144568;27;20513;-70
2022/11/06 05:55:04;;;;;;;5.68;2.25;;;8.80;99.90;;;;;;5135767;27;20043;-70
2022/11/06 05:57:30;;;;;;;4.13;2.00;;;8.80;99.90;;;;;;5116029;28;20054;-69
2022/11/06 05:59:56;;;;;;;4.50;1.80;;;8.90;99.90;;;;;;5148500;27;20125;-69
2022/11/06 06:02:21;;;;;;;5.45;2.17;;;8.90;99.90;;;;;;5135970;27;20491;-69
2022/11/06 06:04:47;;;;;;;4.20;2.20;;;8.90;99.90;;;;;;5139775;27;20489;-69
2022/11/06 06:07:13;;;;;;;5.90;2.28;;;8.90;99.90;;;;;;5156661;27;20466;-70
2022/11/06 06:09:38;;;;;;;4.47;1.90;;;9.00;99.90;;;;;;5156428;27;20067;-70
2022/11/06 06:12:04;;;;;;;5.20;2.38;;;8.90;99.90;;;;;;5156462;27;20053;-69
2022/11/06 06:14:30;;;;;;;4.80;2.30;;;9.00;99.90;;;;;;5138150;27;20065;-69
2022/11/06 06:16:56;;;;;;;3.97;2.05;;;9.10;99.90;;;;;;5137907;27;20077;-70
2022/11/06 06:19:21;;;;;;;4.43;1.75;;;9.00;99.90;;;;;;5117097;27;20080;-70
2022/11/06 06:21:48;;;;;;;5.60;2.33;;;9.10;99.90;;;;;;5138387;27;20074;-69
2022/11/06 06:24:14;;;;;;;4.35;2.30;;;9.10;99.90;;;;;;5156213;27;20039;-70
2022/11/06 06:26:39;;;;;;;5.25;1.95;;;9.10;99.90;;;;;;5138617;27;20468;-70
2022/11/06 06:29:05;;;;;;;5.60;2.00;;;9.10;99.90;;;;;;5116813;27;20043;-69
2022/11/06 06:31:30;;;;;;;3.78;1.65;;;9.10;99.90;;;;;;5138894;27;20089;-70
2022/11/06 06:33:56;;;;;;;5.07;1.70;;;9.10;99.90;;;;;;5141026;27;20050;-70
2022/11/06 06:36:22;;;;;;;5.63;2.20;;;9.10;99.90;;;;;;5135082;27;20452;-70
2022/11/06 06:38:47;;;;;;;5.38;2.00;;;9.20;99.90;;;;;;5134959;27;20047;-70
2022/11/06 06:41:13;;;;;;;4.40;1.92;;;9.50;99.90;;;;;;5134627;27;20047;-69
2022/11/06 06:43:39;;;;;;;4.45;2.00;;;9.10;99.90;;;;;;5134208;27;20047;-70
2022/11/06 06:46:06;;;;;;;4.57;1.63;;;9.40;99.90;;;;;;5134898;27;20065;-69
2022/11/06 06:48:32;;;;;;;3.72;1.90;;;9.10;99.90;;;;;;5141957;27;20069;-70
2022/11/06 06:50:59;;;;;;;4.38;1.80;;;9.10;99.90;;;;;;5147589;27;20187;-69
2022/11/06 06:53:25;;;;;;;3.85;1.65;;;9.10;99.90;;;;;;5155717;27;20453;-69
2022/11/06 06:55:51;;;;;;;2.28;1.58;;;9.10;99.90;;;;;;5141707;27;20031;-69
2022/11/06 06:58:17;;;;;;;4.22;1.92;;;9.10;99.90;;;;;;5116032;27;20100;-69
2022/11/06 07:00:43;;;;;;;3.83;1.70;;;9.30;99.90;;;;;;5139893;27;20495;-70
2022/11/06 07:03:09;;;;;;;4.07;1.90;;;9.20;99.90;;;;;;5152226;27;20049;-69
2022/11/06 07:05:35;;;;;;;3.83;1.83;;;9.20;99.90;;;;;;5148710;27;20490;-70
2022/11/06 07:08:01;;;;;;;3.90;1.75;;;9.20;99.90;;;;;;5117898;27;20499;-69
2022/11/06 07:10:27;;;;;;;3.78;1.90;;;9.20;99.90;;;;;;5134743;27;20066;-70
2022/11/06 07:12:52;;;;;;;3.47;1.60;;;9.20;99.90;;;;;;5151779;27;20075;-69
2022/11/06 07:15:18;;;;;;;3.40;1.60;;;9.30;99.90;;;;;;5136150;27;20038;-69
2022/11/06 07:17:43;;;;;;;4.70;1.98;;;9.30;99.90;;;;;;5142436;27;20127;-69
2022/11/06 07:20:10;;;;;;;4.22;1.58;;;9.30;99.90;;;;;;5149155;27;20058;-69
2022/11/06 07:22:36;;;;;;;4.15;1.70;;;9.30;99.90;;;;;;5134559;27;20039;-69
2022/11/06 07:25:01;;;;;;;4.38;1.50;;;9.40;99.90;;;;;;5134209;27;20035;-69
2022/11/06 07:27:28;;;;;;;4.25;1.77;;;9.50;99.90;;;;;;5134155;27;20093;-69
2022/11/06 07:29:53;;;;;;;3.47;1.70;;;9.40;99.90;;;;;;5116459;27;20114;-69
2022/11/06 07:32:19;;;;;;;3.30;2.00;;;9.50;99.90;;;;;;5123172;27;20133;-69
2022/11/06 07:34:45;;;;;;;3.78;1.80;;;9.50;99.90;;;;;;5148408;27;20146;-69
2022/11/06 07:37:11;;;;;;;2.65;1.50;;;9.50;99.90;;;;;;5145924;27;20123;-69
2022/11/06 07:39:36;;;;;;;3.50;1.60;;;9.50;99.90;;;;;;5142620;27;20763;-69
2022/11/06 07:42:02;;;;;;;4.00;1.60;;;9.80;99.90;;;;;;5115410;27;20039;-70
2022/11/06 07:44:28;;;;;;;3.88;1.38;;;9.50;99.90;;;;;;5148241;27;20098;-70
2022/11/06 07:46:53;;;;;;;5.15;1.73;;;9.60;99.90;;;;;;5154697;27;20103;-70
2022/11/06 07:49:19;;;;;;;3.45;1.65;;;9.60;99.90;;;;;;5154495;27;20050;-69
2022/11/06 07:51:45;;;;;;;4.55;1.75;;;9.60;99.90;;;;;;5134781;27;20044;-69
2022/11/06 07:54:11;;;;;;;4.93;1.70;;;9.70;99.90;;;;;;5133866;27;20043;-69
2022/11/06 07:56:36;;;;;;;3.33;1.60;;;9.70;99.90;;;;;;5133800;27;20382;-70
2022/11/06 07:59:03;;;;;;;5.28;1.60;;;9.70;99.90;;;;;;5132833;27;20043;-70
2022/11/06 08:01:29;;;;;;;3.30;1.77;;;9.70;99.90;;;;;;5141150;27;20041;-70
2022/11/06 08:03:54;;;;;;;5.25;1.67;;;9.80;99.90;;;;;;5137088;27;20396;-70
2022/11/06 08:06:20;;;;;;;2.58;1.58;;;9.80;99.90;;;;;;5133628;27;20126;-70
2022/11/06 08:08:46;;;;;;;2.88;1.67;;;9.80;99.90;;;;;;5139628;27;20047;-70
2022/11/06 08:11:13;;;;;;;3.80;1.30;;;9.80;99.90;;;;;;5133011;27;20138;-70
2022/11/06 08:13:38;;;;;;;2.63;1.40;;;9.80;99.90;;;;;;5139824;27;20106;-71
2022/11/06 08:16:09;;;;;;;3.88;1.98;;;9.80;99.90;;;;;;5147291;27;20047;-70
2022/11/06 08:18:35;;;;;;;4.78;1.65;;;9.90;99.90;;;;;;5133046;27;20474;-70
2022/11/06 08:21:01;;;;;;;3.38;2.67;;;9.90;99.90;;;;;;5133292;27;20384;-70
2022/11/06 08:23:27;;;;;;;3.42;1.60;;;9.90;99.90;;;;;;5133291;27;20399;-70
2022/11/06 08:25:55;;;;;;;4.47;1.58;;;10.00;99.90;;;;;;5131642;27;20048;-70
2022/11/06 08:28:21;;;;;;;3.75;1.30;;;10.10;99.90;;;;;;5132147;27;20042;-71
2022/11/06 08:30:47;;;;;;;3.40;1.30;;;10.20;99.90;;;;;;5142267;27;20081;-70
2022/11/06 08:33:12;;;;;;;5.05;1.20;;;10.30;99.90;;;;;;5135381;27;20646;-63
2022/11/06 08:35:38;;;;;;;5.53;1.75;;;10.40;99.90;;;;;;5132888;27;20046;-63
2022/11/06 08:38:04;;;;;;;4.32;1.70;;;10.30;99.90;;;;;;5133302;27;20042;-63
2022/11/06 08:40:30;;;;;;;4.15;1.75;;;10.30;99.90;;;;;;5139861;27;20130;-63
2022/11/06 08:43:00;;;;;;;4.82;1.60;;;10.30;99.90;;;;;;5140058;27;20121;-63
2022/11/06 08:45:26;;;;;;;6.18;1.58;;;10.30;99.90;;;;;;5114564;27;20510;-63
2022/11/06 08:47:52;;;;;;;2.35;1.23;;;10.30;99.90;;;;;;5135955;27;20052;-63
2022/11/06 08:50:17;;;;;;;2.40;1.20;;;10.30;99.90;;;;;;5134829;27;20051;-63
2022/11/06 08:52:43;;;;;;;2.88;1.35;;;10.30;99.90;;;;;;5136736;27;20106;-63
2022/11/06 08:55:08;;;;;;;3.17;1.35;;;10.30;99.90;;;;;;5137232;27;20114;-63
2022/11/06 08:57:34;;;;;;;4.70;1.67;;;10.30;99.90;;;;;;5132272;27;20087;-64
2022/11/06 09:00:00;;;;;;;5.68;2.20;;;10.40;99.90;;;;;;5132603;27;20479;-63
2022/11/06 09:02:25;;;;;;;3.90;1.83;;;10.40;99.90;;;;;;5131138;27;20086;-63
2022/11/06 09:04:52;;;;;;;3.50;1.60;;;10.40;99.90;;;;;;5131126;27;20127;-64
2022/11/06 09:07:18;;;;;;;3.28;1.63;;;10.60;99.90;;;;;;5132999;27;20087;-64
2022/11/06 09:09:44;;;;;;;4.22;1.50;;;10.70;99.90;;;;;;5148788;27;20065;-63
2022/11/06 09:12:09;;;;;;;4.05;1.55;;;11.00;99.90;;;;;;5137959;27;20086;-63
2022/11/06 09:14:35;;;;;;;5.63;1.45;;;11.10;99.90;;;;;;5131624;27;20129;-64
2022/11/06 09:17:01;;;;;;;4.45;1.40;;;11.40;99.90;;;;;;5130921;27;20042;-63
2022/11/06 09:19:26;;;;;;;4.43;2.03;;;11.40;99.90;;;;;;5131791;27;20149;-63
2022/11/06 09:21:52;;;;;;;4.05;1.50;;;11.50;99.90;;;;;;5123973;27;20512;-64
2022/11/06 09:24:18;;;;;;;5.93;1.60;;;11.40;99.90;;;;;;5145967;27;20114;-63
2022/11/06 09:26:44;;;;;;;3.60;1.35;;;11.30;99.90;;;;;;5139324;27;20047;-63
2022/11/06 09:29:09;;;;;;;3.10;1.40;;;11.30;99.90;;;;;;5131204;27;20505;-64
2022/11/06 09:31:35;;;;;;;3.17;1.45;;;11.30;99.90;;;;;;5142885;27;20043;-70
2022/11/06 09:34:01;;;;;;;2.80;1.40;;;11.30;99.90;;;;;;5141865;27;20122;-68
2022/11/06 09:36:26;;;;;;;5.05;1.35;;;11.30;99.90;;;;;;5128280;27;20141;-68
2022/11/06 09:38:52;;;;;;;4.40;1.67;;;11.40;99.90;;;;;;5112324;28;20429;-71
2022/11/06 09:41:29;;;;;;;2.70;1.60;;;11.40;99.90;;;;;;5131808;27;20055;-71
2022/11/06 09:44:03;;;;;;;4.68;1.67;;;11.50;99.90;;;;;;5136417;27;20093;-70
2022/11/06 09:46:32;;;;;;;3.25;1.50;;;11.50;99.90;;;;;;5134042;27;20047;-70
2022/11/06 09:49:04;;;;;;;5.00;1.48;;;11.40;99.90;;;;;;5139712;27;20100;-71
2022/11/06 09:51:46;;;;;;;6.20;1.50;;;11.40;99.90;;;;;;5131359;27;20054;-71
2022/11/06 09:54:24;;;;;;;4.22;1.45;;;11.30;99.90;;;;;;5133519;27;20139;-71
2022/11/06 09:56:56;;;;;;;2.83;1.40;;;11.20;99.90;;;;;;5138639;27;20092;-70
2022/11/06 09:59:22;;;;;;;4.10;1.38;;;11.10;99.90;;;;;;5129484;27;20035;-68
2022/11/06 10:01:57;;;;;;;3.47;1.55;;;11.20;99.90;;;;;;5138891;27;20046;-67
2022/11/06 10:04:42;;;;;;;2.55;1.25;;;11.30;99.90;;;;;;5132906;27;20502;-67
2022/11/06 10:07:29;;;;;;;2.42;1.42;;;11.50;99.90;;;;;;5151279;27;20047;-67
2022/11/06 10:09:54;;;;;;;;;;;11.30;99.90;;;;;;5134711;27;20058;-70
2022/11/06 10:13:02;;;;;;;5.13;1.30;;;11.30;99.90;;;;;;5138932;27;19923;-69
2022/11/06 10:15:43;;;;;;;2.97;1.20;;;11.30;99.90;;;;;;5141882;27;20261;-69
2022/11/06 10:18:51;;;;;;;4.20;2.10;;;11.30;99.90;;;;;;5144331;27;20042;-69
2022/11/06 10:21:38;;;;;;;3.13;1.38;;;11.30;99.90;;;;;;5141542;27;20167;-69
2022/11/06 10:24:19;;;;;;;2.60;1.40;;;11.30;99.90;;;;;;5130580;27;20134;-68
2022/11/06 10:26:50;;;;;;;2.80;1.35;;;11.40;99.90;;;;;;5147942;27;20082;-69
2022/11/06 10:29:46;;;;;;;3.05;1.50;;;11.40;99.90;;;;;;5135739;27;20047;-70
2022/11/06 10:32:46;;;;;;;3.53;1.25;;;11.50;99.90;;;;;;5137265;27;20126;-70
2022/11/06 10:35:56;;;;;;;3.80;1.40;;;11.60;99.90;;;;;;5151520;27;20082;-70
2022/11/06 10:38:37;;;;;;;3.15;1.20;;;11.70;99.90;;;;;;5028103;28;20184;-71
2022/11/06 10:41:03;;;;;;;4.07;1.30;;;11.80;99.90;;;;;;5025397;28;20045;-70
2022/11/06 10:43:41;;;;;;;2.28;1.30;;;12.00;99.90;;;;;;5084737;27;20055;-70
2022/11/06 10:46:39;;;;;;;3.58;1.40;;;12.30;99.90;;;;;;5131270;27;20043;-71
2022/11/06 10:49:22;;;;;;;3.35;1.23;;;12.60;99.90;;;;;;5151612;27;20050;-71
2022/11/06 10:52:00;;;;;;;2.63;1.02;;;12.70;99.90;;;;;;5133729;27;20050;-71
2022/11/06 10:54:47;;;;;;;2.83;1.10;;;12.40;99.90;;;;;;5134995;27;20089;-70
2022/11/06 10:57:36;;;;;;;5.07;1.25;;;12.30;99.90;;;;;;5115992;27;20126;-70
2022/11/06 11:00:10;;;;;;;1.92;1.10;;;12.20;99.90;;;;;;5134104;27;20043;-70
2022/11/06 11:02:42;;;;;;;2.22;1.10;;;12.20;99.90;;;;;;5134698;27;20043;-71
2022/11/06 11:05:17;;;;;;;4.00;1.10;;;12.10;99.90;;;;;;5134561;27;20047;-71
2022/11/06 11:07:45;;;;;;;3.00;1.00;;;12.10;99.90;;;;;;5133588;27;20071;-69
2022/11/06 11:10:22;;;;;;;4.90;1.20;;;12.10;99.90;;;;;;5138027;27;20055;-70
2022/11/06 11:12:53;;;;;;;3.20;2.20;;;12.10;99.90;;;;;;5139936;27;20047;-70
2022/11/06 11:15:24;;;;;;;2.22;0.90;;;12.00;99.90;;;;;;5149701;27;20053;-70
2022/11/06 11:18:33;;;;;;;4.57;1.35;;;12.10;99.90;;;;;;5142073;27;20391;-69
2022/11/06 11:21:11;;;;;;;3.47;1.00;;;12.30;99.90;;;;;;5040427;28;20517;-69
2022/11/06 11:23:37;;;;;;;4.25;1.20;;;12.40;99.90;;;;;;5128276;27;20507;-70
2022/11/06 11:26:12;;;;;;;3.47;1.10;;;12.40;99.90;;;;;;5138980;27;20050;-67
2022/11/06 11:28:39;;;;;;;3.35;1.00;;;12.60;99.90;;;;;;5154071;27;20184;-67
2022/11/06 11:31:13;;;;;;;2.92;1.00;;;12.60;99.90;;;;;;5151660;27;20047;-69
2022/11/06 11:33:41;;;;;;;2.28;1.00;;;12.70;99.90;;;;;;5133455;27;20086;-67
2022/11/06 11:36:08;;;;;;;2.53;0.90;;;12.80;99.90;;;;;;5114965;27;20369;-67
2022/11/06 11:38:37;;;;;;;3.28;1.10;;;12.80;99.90;;;;;;5133402;27;20051;-67
2022/11/06 11:41:10;;;;;;;2.40;1.10;;;12.90;99.90;;;;;;5133441;27;20555;-69
2022/11/06 11:43:36;;;;;;;2.88;0.90;;;12.90;99.90;;;;;;5133393;27;20039;-67
2022/11/06 11:46:20;;;;;;;2.72;0.90;;;12.90;99.90;;;;;;5133760;27;20062;-67
2022/11/06 11:48:56;;;;;;;3.78;1.20;;;12.90;99.90;;;;;;5133588;27;20122;-67
2022/11/06 11:51:29;;;;;;;2.40;0.90;;;12.90;99.90;;;;;;5138453;27;20047;-67
2022/11/06 11:54:10;;;;;;;5.53;1.08;;;12.80;99.90;;;;;;5141145;27;20129;-67
2022/11/06 11:56:43;;;;;;;2.55;1.10;;;12.70;99.90;;;;;;5133097;27;20085;-68
2022/11/06 11:59:19;;;;;;;4.28;1.27;;;12.60;99.90;;;;;;5132676;27;20054;-67
2022/11/06 12:01:46;;;;;;;2.63;1.00;;;12.50;99.90;;;;;;5137262;27;20138;-68
2022/11/06 12:04:20;;;;;;;3.08;1.38;;;12.50;99.90;;;;;;5132812;27;20563;-68
2022/11/06 12:06:50;;;;;;;3.78;1.10;;;12.40;99.90;;;;;;5123597;27;20047;-68
2022/11/06 12:09:16;;;;;;;2.53;1.08;;;12.40;99.90;;;;;;5128908;27;20059;-69
2022/11/06 12:11:42;;;;;;;5.13;1.10;;;12.40;99.90;;;;;;5138579;27;20135;-69
2022/11/06 12:14:38;;;;;;;3.33;1.50;;;12.40;99.90;;;;;;5128617;27;20448;-68
2022/11/06 12:17:16;;;;;;;3.33;1.00;;;12.40;99.90;;;;;;5126848;27;20070;-69
2022/11/06 12:19:48;;;;;;;2.10;1.10;;;12.40;99.90;;;;;;5128890;27;20515;-70
2022/11/06 12:22:28;;;;;;;4.25;1.30;;;12.40;99.90;;;;;;5139194;27;20051;-67
2022/11/06 12:25:44;;;;;;;3.72;1.65;;;12.50;99.90;;;;;;5140649;27;20051;-69
2022/11/06 12:28:15;;;;;;;2.88;1.00;;;12.50;99.90;;;;;;5031079;28;20111;-70
2022/11/06 12:30:45;;;;;;;3.35;1.20;;;12.50;99.90;;;;;;5135601;27;20062;-71
2022/11/06 12:33:18;;;;;;;3.22;1.20;;;12.60;99.90;;;;;;5134857;27;20078;-70
2022/11/06 12:35:51;;;;;;;2.92;1.10;;;12.50;99.90;;;;;;5127881;27;20054;-69
2022/11/06 12:38:32;;;;;;;3.95;1.25;;;12.50;99.90;;;;;;5146627;27;20440;-70
2022/11/06 12:41:14;;;;;;;3.35;1.10;;;12.50;99.90;;;;;;5132676;27;20047;-70
2022/11/06 12:43:47;;;;;;;5.10;1.63;;;12.60;99.90;;;;;;5131894;27;20047;-70
2022/11/06 12:46:28;;;;;;;3.13;1.00;;;12.70;99.90;;;;;;5148473;27;20103;-70
2022/11/06 12:49:09;;;;;;;2.08;1.00;;;12.70;99.90;;;;;;5144595;27;20050;-70
2022/11/06 12:52:01;;;;;;;4.07;1.30;;;12.70;99.90;;;;;;5142713;27;20572;-70
2022/11/06 12:54:39;;;;;;;2.30;1.33;;;12.60;99.90;;;;;;5132218;27;20039;-70
2022/11/06 12:57:26;;;;;;;2.08;0.95;;;12.60;99.90;;;;;;5113923;27;20050;-70
2022/11/06 13:00:03;;;;;;;3.13;1.33;;;12.50;99.90;;;;;;5132296;27;20072;-70
2022/11/06 13:02:57;;;;;;;2.60;1.10;;;12.50;99.90;;;;;;5132183;27;20062;-70
2022/11/06 13:05:30;;;;;;;1.70;0.82;;;12.50;99.90;;;;;;5131646;27;20042;-70
2022/11/06 13:08:15;;;;;;;2.25;0.88;;;12.50;99.90;;;;;;5132108;27;20046;-70
2022/11/06 13:10:43;;;;;;;2.60;1.05;;;12.50;99.90;;;;;;5135945;27;20049;-71
2022/11/06 13:13:47;;;;;;;5.03;1.27;;;12.40;99.90;;;;;;5131946;27;20107;-70
2022/11/06 13:16:26;;;;;;;4.03;1.15;;;12.40;99.90;;;;;;5131852;27;20114;-70
2022/11/06 13:19:13;;;;;;;1.90;0.90;;;12.40;99.90;;;;;;5136209;27;20432;-69
2022/11/06 13:21:51;;;;;;;2.42;0.80;;;12.30;99.90;;;;;;5142413;27;20509;-69
2022/11/06 13:24:20;;;;;;;2.25;0.90;;;12.40;99.90;;;;;;5141922;27;20035;-69
2022/11/06 13:26:53;;;;;;;2.25;1.08;;;12.40;99.90;;;;;;5118575;27;20491;-69
2022/11/06 13:29:22;;;;;;;2.17;1.02;;;12.40;99.90;;;;;;5143526;27;20039;-68